Georgetown, Kentucky
Current Conditions -  °F | °C
As of 7:17 PM on Thursday 27 Nov 2014 (Local Time) from KLEX Reporting Station
Overcast Overcast  
Wind Chill: 20°   Ceiling: 3200
Heat Index: 30°   Visibility: 10mi
Dew Point: 22°   Wind: 14mph
Humidity: 72%   Direction: 280°W
Pressure: 30.37"   Gusts: NA
Location:  38.21°N, 84.56°W
Report Text: KLEX 280017Z 28012KT 10SM OVC032 M01/M06 A3037 RMK AO2 T10111056
Loading
Personal Weather Stations






























Interactive Weather Map New forecast layout! Learn more

10-Day Weather Forecast

Advertisements
Track Severe Weather on mobile